createdAt,value
2018-07-24T00:00:26.106Z,82.20
2018-07-24T00:02:54.557Z,82.60
2018-07-24T00:05:23.032Z,82.80
2018-07-24T00:07:51.459Z,82.80
2018-07-24T00:10:19.950Z,82.80
2018-07-24T00:12:48.711Z,83.10
2018-07-24T00:15:17.228Z,83.20
2018-07-24T00:17:45.680Z,83.40
2018-07-24T00:20:14.186Z,83.60
2018-07-24T00:22:42.667Z,83.80
2018-07-24T00:25:11.151Z,84.00
2018-07-24T00:27:39.959Z,84.20
2018-07-24T00:30:08.502Z,84.40
2018-07-24T00:32:36.965Z,84.40
2018-07-24T00:35:05.504Z,84.00
2018-07-24T00:37:33.942Z,84.30
2018-07-24T00:40:02.384Z,84.20
2018-07-24T00:42:30.851Z,84.50
2018-07-24T00:44:59.286Z,84.90
2018-07-24T00:47:27.891Z,85.40
2018-07-24T00:49:56.512Z,85.70
2018-07-24T00:52:24.993Z,85.60
2018-07-24T00:54:53.783Z,85.50
2018-07-24T00:57:22.272Z,85.30
2018-07-24T00:59:50.702Z,85.20
2018-07-24T01:02:19.210Z,85.10
2018-07-24T01:04:47.656Z,84.80
2018-07-24T01:07:16.123Z,84.70
2018-07-24T01:09:44.592Z,84.90
2018-07-24T01:12:13.186Z,85.30
2018-07-24T01:14:41.674Z,85.80
2018-07-24T01:17:10.563Z,86.40
2018-07-24T01:19:39.360Z,86.60
2018-07-24T01:22:08.172Z,87.00
2018-07-24T01:24:39.852Z,87.20
2018-07-24T01:27:08.330Z,87.40
2018-07-24T01:29:36.772Z,87.60
2018-07-24T01:32:05.766Z,87.60
2018-07-24T01:34:34.228Z,87.50
2018-07-24T01:37:02.676Z,87.50
2018-07-24T01:39:31.142Z,87.60
2018-07-24T01:41:59.578Z,87.60
2018-07-24T01:44:28.047Z,87.60
2018-07-24T01:46:56.482Z,87.80
2018-07-24T01:49:24.950Z,88.00
2018-07-24T01:51:53.403Z,88.00
2018-07-24T01:54:21.869Z,88.20
2018-07-24T01:56:50.322Z,87.90
2018-07-24T01:59:18.801Z,87.40
2018-07-24T02:01:47.239Z,87.40
2018-07-24T02:04:15.717Z,87.30
2018-07-24T02:06:44.155Z,87.30
2018-07-24T02:09:13.623Z,87.40
2018-07-24T02:11:42.050Z,87.40
2018-07-24T02:14:10.590Z,87.40
2018-07-24T02:16:39.038Z,87.80
2018-07-24T02:19:07.520Z,87.90
2018-07-24T02:21:35.962Z,87.80
2018-07-24T02:24:04.518Z,88.50
2018-07-24T02:26:32.972Z,87.80
2018-07-24T02:29:01.555Z,87.80
2018-07-24T02:31:30.027Z,88.10
2018-07-24T02:33:58.476Z,88.30
2018-07-24T02:36:26.953Z,88.50
2018-07-24T02:38:55.400Z,88.60
2018-07-24T02:41:23.884Z,88.80
2018-07-24T02:43:52.318Z,88.80
2018-07-24T02:46:21.152Z,88.90
2018-07-24T02:48:49.588Z,88.90
2018-07-24T02:51:18.083Z,88.90
2018-07-24T02:53:46.687Z,88.90
2018-07-24T02:56:15.159Z,88.80
2018-07-24T02:58:43.638Z,88.80
2018-07-24T03:01:12.136Z,88.70
2018-07-24T03:03:40.571Z,88.90
2018-07-24T03:06:09.071Z,89.00
2018-07-24T03:08:37.551Z,89.00
2018-07-24T03:11:06.266Z,89.10
2018-07-24T03:13:34.744Z,89.30
2018-07-24T03:16:03.248Z,90.00
2018-07-24T03:18:31.901Z,89.40
2018-07-24T03:21:00.568Z,89.50
2018-07-24T03:23:29.037Z,89.70
2018-07-24T03:25:57.906Z,89.70
2018-07-24T03:28:26.364Z,89.70
2018-07-24T03:30:54.864Z,89.50
2018-07-24T03:33:23.307Z,89.20
2018-07-24T03:35:52.609Z,89.30
2018-07-24T03:38:21.063Z,89.50
2018-07-24T03:40:49.509Z,89.70
2018-07-24T03:43:18.012Z,89.90
2018-07-24T03:45:46.490Z,90.00
2018-07-24T03:48:14.987Z,90.00
2018-07-24T03:50:43.747Z,90.00
2018-07-24T03:53:12.355Z,90.00
2018-07-24T03:55:40.795Z,90.00
2018-07-24T03:58:09.271Z,90.00
2018-07-24T04:00:38.328Z,90.10
2018-07-24T04:03:06.828Z,90.10
2018-07-24T04:08:04.683Z,90.30
2018-07-24T04:10:33.945Z,90.30
2018-07-24T04:13:02.491Z,90.20
2018-07-24T04:15:31.031Z,90.20
2018-07-24T04:17:59.475Z,90.30
2018-07-24T04:20:27.956Z,90.20
2018-07-24T04:22:56.748Z,90.20
2018-07-24T04:25:25.228Z,90.20
2018-07-24T04:27:53.703Z,90.20
2018-07-24T04:30:23.229Z,90.30
2018-07-24T04:32:51.876Z,90.30
2018-07-24T04:35:20.891Z,90.40
2018-07-24T04:37:49.339Z,90.40
2018-07-24T04:40:17.919Z,90.40
2018-07-24T04:42:46.844Z,90.40
2018-07-24T04:45:15.363Z,90.30
2018-07-24T04:47:43.842Z,90.20
2018-07-24T04:50:12.332Z,90.20
2018-07-24T04:52:41.016Z,90.30
2018-07-24T04:55:09.532Z,90.30
2018-07-24T04:57:37.979Z,90.30
2018-07-24T05:00:06.879Z,90.30
2018-07-24T05:02:35.421Z,90.40
2018-07-24T05:05:04.158Z,90.40
2018-07-24T05:07:32.594Z,90.30
2018-07-24T05:10:01.023Z,90.40
2018-07-24T05:12:29.717Z,90.40
2018-07-24T05:14:58.208Z,90.30
2018-07-24T05:17:26.692Z,90.30
2018-07-24T05:19:55.188Z,90.10
2018-07-24T05:22:23.619Z,90.00
2018-07-24T05:24:52.120Z,90.00
2018-07-24T05:27:20.560Z,89.80
2018-07-24T05:29:49.032Z,89.50
2018-07-24T05:32:17.520Z,88.40
2018-07-24T05:34:45.956Z,89.10
2018-07-24T05:37:14.431Z,88.50
2018-07-24T05:39:42.879Z,88.00
2018-07-24T05:44:39.687Z,87.60
2018-07-24T05:47:08.162Z,87.60
2018-07-24T05:49:36.592Z,87.20
2018-07-24T05:52:05.074Z,87.10
2018-07-24T05:54:33.518Z,86.90
2018-07-24T05:57:02.036Z,86.80
2018-07-24T05:59:30.465Z,86.10
2018-07-24T06:01:58.957Z,85.70
2018-07-24T06:04:28.013Z,85.50
2018-07-24T06:06:56.810Z,85.30
2018-07-24T06:09:25.276Z,84.90
2018-07-24T06:11:53.762Z,84.30
2018-07-24T06:14:22.312Z,84.10
2018-07-24T06:16:50.933Z,84.00
2018-07-24T06:19:19.584Z,83.20
2018-07-24T06:21:48.387Z,82.90
2018-07-24T06:24:17.058Z,82.60
2018-07-24T06:26:45.505Z,82.20
2018-07-24T06:29:14.002Z,82.30
2018-07-24T06:31:42.631Z,82.00
2018-07-24T06:34:11.099Z,80.70
2018-07-24T06:36:39.556Z,80.00
2018-07-24T06:39:10.003Z,79.60
2018-07-24T06:41:39.076Z,79.20
2018-07-24T06:44:07.654Z,78.20
2018-07-24T06:46:36.200Z,78.00
2018-07-24T06:49:04.997Z,76.40
2018-07-24T06:51:33.563Z,77.10
2018-07-24T06:54:02.143Z,77.00
2018-07-24T06:56:31.521Z,76.70
2018-07-24T06:59:00.609Z,74.90
2018-07-24T07:01:29.333Z,74.50
2018-07-24T07:03:57.828Z,73.60
2018-07-24T07:06:27.247Z,73.60
2018-07-24T07:09:01.022Z,72.00
2018-07-24T07:11:29.519Z,72.00
2018-07-24T07:13:58.047Z,71.20
2018-07-24T07:16:26.568Z,71.10
2018-07-24T07:18:55.047Z,70.30
2018-07-24T07:21:23.553Z,70.00
2018-07-24T07:23:52.041Z,68.80
2018-07-24T07:26:20.880Z,68.40
2018-07-24T07:28:49.569Z,66.80
2018-07-24T07:31:18.256Z,67.60
2018-07-24T07:33:46.726Z,66.30
2018-07-24T07:36:15.789Z,65.40
2018-07-24T07:38:44.839Z,65.60
2018-07-24T07:41:14.182Z,64.80
2018-07-24T07:43:43.251Z,63.20
2018-07-24T07:46:12.256Z,62.80
2018-07-24T07:48:41.278Z,63.10
2018-07-24T07:51:10.343Z,60.50
2018-07-24T07:53:39.339Z,60.10
2018-07-24T07:56:08.383Z,59.80
2018-07-24T08:01:06.342Z,57.90
2018-07-24T08:03:35.353Z,57.50
2018-07-24T08:06:04.390Z,58.10
2018-07-24T08:08:33.554Z,57.20
2018-07-24T08:11:02.632Z,55.40
2018-07-24T08:13:31.676Z,55.00
2018-07-24T08:16:00.706Z,55.60
2018-07-24T08:18:29.690Z,56.20
2018-07-24T08:20:58.737Z,55.40
2018-07-24T08:23:27.960Z,54.30
2018-07-24T08:25:57.184Z,54.00
2018-07-24T08:28:26.359Z,54.40
2018-07-24T08:30:55.374Z,53.70
2018-07-24T08:33:24.367Z,53.20
2018-07-24T08:35:53.394Z,54.00
2018-07-24T08:38:22.379Z,54.00
2018-07-24T08:40:51.393Z,52.10
2018-07-24T08:43:20.379Z,52.20
2018-07-24T08:45:51.107Z,51.20
2018-07-24T08:48:20.117Z,51.00
2018-07-24T08:50:49.516Z,50.30
2018-07-24T08:53:18.766Z,49.80
2018-07-24T08:55:48.035Z,49.40
2018-07-24T08:58:16.880Z,47.80
2018-07-24T09:00:45.891Z,47.70
2018-07-24T09:03:14.929Z,48.00
2018-07-24T09:05:44.094Z,47.90
2018-07-24T09:08:13.075Z,48.10
2018-07-24T09:10:42.132Z,46.80
2018-07-24T09:13:11.168Z,47.30
2018-07-24T09:15:40.330Z,47.70
2018-07-24T09:18:09.457Z,46.90
2018-07-24T09:20:38.848Z,45.90
2018-07-24T09:25:36.919Z,45.50
2018-07-24T09:28:06.475Z,45.40
2018-07-24T09:30:35.704Z,44.80
2018-07-24T09:33:04.710Z,45.40
2018-07-24T09:35:33.724Z,42.60
2018-07-24T09:38:02.698Z,40.90
2018-07-24T09:40:31.761Z,40.80
2018-07-24T09:43:00.884Z,40.20
2018-07-24T09:45:29.908Z,40.00
2018-07-24T09:47:58.916Z,40.90
2018-07-24T09:50:28.014Z,39.20
2018-07-24T09:52:57.123Z,38.40
2018-07-24T09:55:26.140Z,35.90
2018-07-24T09:57:55.172Z,35.60
2018-07-24T10:00:29.523Z,34.30
2018-07-24T10:02:58.567Z,33.20
2018-07-24T10:05:27.625Z,35.10
2018-07-24T10:07:57.311Z,32.80
2018-07-24T10:10:26.336Z,30.60
2018-07-24T10:12:55.437Z,32.70
2018-07-24T10:15:24.644Z,32.00
2018-07-24T10:17:53.672Z,32.50
2018-07-24T10:20:23.024Z,32.70
2018-07-24T10:22:52.061Z,35.10
2018-07-24T10:25:21.042Z,34.80
2018-07-24T10:27:50.055Z,36.20
2018-07-24T10:30:19.143Z,35.10
2018-07-24T10:32:48.303Z,34.10
2018-07-24T10:35:17.335Z,34.20
2018-07-24T10:37:46.346Z,35.80
2018-07-24T10:40:15.337Z,35.40
2018-07-24T10:42:44.412Z,36.20
2018-07-24T10:45:13.410Z,35.90
2018-07-24T10:47:42.819Z,35.40
2018-07-24T10:50:11.794Z,34.80
2018-07-24T10:52:40.842Z,36.80
2018-07-24T10:55:10.007Z,37.70
2018-07-24T10:57:39.029Z,35.60
2018-07-24T11:06:03.915Z,37.20
2018-07-24T11:08:32.895Z,37.80
2018-07-24T11:11:01.955Z,37.80
2018-07-24T11:13:31.246Z,37.40
2018-07-24T11:16:00.238Z,37.20
2018-07-24T11:18:29.596Z,38.70
2018-07-24T11:20:58.592Z,36.70
2018-07-24T11:23:27.610Z,37.20
2018-07-24T11:25:56.653Z,36.90
2018-07-24T11:28:25.776Z,38.50
2018-07-24T11:30:54.893Z,38.70
2018-07-24T11:33:23.973Z,41.80
2018-07-24T11:35:53.304Z,38.20
2018-07-24T11:38:22.385Z,40.40
2018-07-24T11:40:51.555Z,38.40
2018-07-24T11:43:20.938Z,39.40
2018-07-24T11:48:18.979Z,37.80
2018-07-24T11:50:47.988Z,39.00
2018-07-24T11:53:17.015Z,38.90
2018-07-24T11:55:46.032Z,40.10
2018-07-24T11:58:15.061Z,39.60
2018-07-24T12:00:44.043Z,40.40
2018-07-24T12:03:13.072Z,40.20
2018-07-24T12:05:42.055Z,40.60
2018-07-24T12:08:11.071Z,39.80
2018-07-24T12:10:40.426Z,39.30
2018-07-24T12:13:09.466Z,39.90
2018-07-24T12:15:38.509Z,38.10
2018-07-24T12:18:07.536Z,36.40
2018-07-24T12:20:36.575Z,36.90
2018-07-24T12:23:05.591Z,34.80
2018-07-24T12:25:34.584Z,34.80
2018-07-24T12:28:03.968Z,33.40
2018-07-24T12:30:32.964Z,34.30
2018-07-24T12:33:01.979Z,33.70
2018-07-24T12:35:30.967Z,33.50
2018-07-24T12:37:59.996Z,33.80
2018-07-24T12:40:28.983Z,33.30
2018-07-24T12:42:58.032Z,33.90
2018-07-24T12:45:27.178Z,32.50
2018-07-24T12:47:56.207Z,32.10
2018-07-24T12:50:25.213Z,33.30
2018-07-24T12:52:54.235Z,33.50
2018-07-24T12:55:23.240Z,33.40
2018-07-24T12:57:52.333Z,33.60
2018-07-24T13:00:21.497Z,34.40
2018-07-24T13:02:50.599Z,33.30
2018-07-24T13:05:19.581Z,34.40
2018-07-24T13:07:48.592Z,32.70
2018-07-24T13:10:17.636Z,31.00
2018-07-24T13:12:46.659Z,31.90
2018-07-24T13:15:15.700Z,32.30
2018-07-24T13:17:44.719Z,33.60
2018-07-24T13:20:13.720Z,30.00
2018-07-24T13:22:42.731Z,30.80
2018-07-24T13:25:12.092Z,29.80
2018-07-24T13:27:40.836Z,29.90
2018-07-24T13:30:09.850Z,30.00
2018-07-24T13:32:38.592Z,30.20
2018-07-24T13:35:07.928Z,31.40
2018-07-24T13:37:36.822Z,29.80
2018-07-24T13:40:05.747Z,31.00
2018-07-24T13:42:34.492Z,29.40
2018-07-24T13:45:03.269Z,29.50
2018-07-24T13:47:32.084Z,28.90
2018-07-24T13:50:00.875Z,29.40
2018-07-24T13:52:29.583Z,30.00
2018-07-24T13:54:58.651Z,30.70
2018-07-24T13:57:27.369Z,29.80
2018-07-24T13:59:56.385Z,31.10
2018-07-24T14:02:25.368Z,29.40
2018-07-24T14:04:54.103Z,29.80
2018-07-24T14:07:23.150Z,30.30
2018-07-24T14:09:51.881Z,30.60
2018-07-24T14:12:20.955Z,28.20
2018-07-24T14:14:49.729Z,29.40
2018-07-24T14:17:18.430Z,27.80
2018-07-24T14:19:47.159Z,28.10
2018-07-24T14:22:16.208Z,26.70
2018-07-24T14:24:45.335Z,28.70
2018-07-24T14:27:14.043Z,28.10
2018-07-24T14:29:42.795Z,28.30
2018-07-24T14:32:11.491Z,28.20
2018-07-24T14:34:40.215Z,28.80
2018-07-24T14:37:08.906Z,28.80
2018-07-24T14:39:37.643Z,29.20
2018-07-24T14:42:06.402Z,30.20
2018-07-24T14:44:35.147Z,30.70
2018-07-24T14:47:04.136Z,28.70
2018-07-24T14:49:33.167Z,31.70
2018-07-24T14:52:02.142Z,29.20
2018-07-24T14:54:30.866Z,28.90
2018-07-24T14:56:59.554Z,29.40
2018-07-24T14:59:28.579Z,30.00
2018-07-24T15:01:57.290Z,29.90
2018-07-24T15:04:26.036Z,29.50
2018-07-24T15:06:54.736Z,29.10
2018-07-24T15:09:26.364Z,29.10
2018-07-24T15:11:55.076Z,29.60
2018-07-24T15:14:23.858Z,30.70
2018-07-24T15:16:52.644Z,30.80
2018-07-24T15:19:21.481Z,29.90
2018-07-24T15:21:50.240Z,29.80
2018-07-24T15:24:19.599Z,30.70
2018-07-24T15:26:48.604Z,29.50
2018-07-24T15:29:17.636Z,30.00
2018-07-24T15:31:46.357Z,30.00
2018-07-24T15:34:15.156Z,29.80
2018-07-24T15:36:44.329Z,29.60
2018-07-24T15:39:14.218Z,29.90
2018-07-24T15:41:43.891Z,29.40
2018-07-24T15:44:13.019Z,29.60
2018-07-24T15:46:42.060Z,30.90
2018-07-24T15:49:10.927Z,30.00
2018-07-24T15:51:39.906Z,30.00
2018-07-24T15:54:08.951Z,30.20
2018-07-24T15:56:37.944Z,29.90
2018-07-24T15:59:06.981Z,30.00
2018-07-24T16:01:35.988Z,30.50
2018-07-24T16:04:05.012Z,30.70
2018-07-24T16:09:02.725Z,30.90
2018-07-24T16:11:31.731Z,30.90
2018-07-24T16:14:00.794Z,30.90
2018-07-24T16:16:29.784Z,30.10
2018-07-24T16:18:58.834Z,30.40
2018-07-24T16:21:27.810Z,30.30
2018-07-24T16:23:56.851Z,29.70
2018-07-24T16:26:25.903Z,30.80
2018-07-24T16:28:54.956Z,29.70
2018-07-24T16:31:24.330Z,30.60
2018-07-24T16:33:53.298Z,29.90
2018-07-24T16:36:22.327Z,30.80
2018-07-24T16:38:51.656Z,30.90
2018-07-24T16:41:20.672Z,30.70
2018-07-24T16:43:50.046Z,31.50
2018-07-24T16:46:19.203Z,31.50
2018-07-24T16:48:48.171Z,32.60
2018-07-24T16:51:17.204Z,31.30
2018-07-24T16:53:46.199Z,30.50
2018-07-24T16:56:15.289Z,30.90
2018-07-24T16:58:44.493Z,30.60
2018-07-24T17:01:13.528Z,32.30
2018-07-24T17:03:42.520Z,32.00
2018-07-24T17:06:11.546Z,31.80
2018-07-24T17:08:40.587Z,32.50
2018-07-24T17:11:09.590Z,32.90
2018-07-24T17:13:38.679Z,33.60
2018-07-24T17:16:07.900Z,32.70
2018-07-24T17:18:36.895Z,33.00
2018-07-24T17:21:05.944Z,33.60
2018-07-24T17:23:34.966Z,33.10
2018-07-24T17:26:04.225Z,33.20
2018-07-24T17:28:33.231Z,34.10
2018-07-24T17:31:02.688Z,34.00
2018-07-24T17:33:31.787Z,34.40
2018-07-24T17:36:00.907Z,34.40
2018-07-24T17:38:30.456Z,34.70
2018-07-24T17:40:59.938Z,35.00
2018-07-24T17:43:28.950Z,35.20
2018-07-24T17:45:57.974Z,35.30
2018-07-24T17:48:27.040Z,35.30
2018-07-24T17:53:24.951Z,35.90
2018-07-24T17:55:54.560Z,36.00
2018-07-24T17:58:23.745Z,35.70
2018-07-24T18:00:52.984Z,35.20
2018-07-24T18:03:22.040Z,35.80
2018-07-24T18:05:51.082Z,35.90
2018-07-24T18:08:20.064Z,36.40
2018-07-24T18:10:49.145Z,36.80
2018-07-24T18:13:18.172Z,37.20
2018-07-24T18:16:00.560Z,37.50
2018-07-24T18:18:29.986Z,37.90
2018-07-24T18:20:59.050Z,38.30
2018-07-24T18:23:28.315Z,38.60
2018-07-24T18:25:57.308Z,38.60
2018-07-24T18:28:26.677Z,38.70
2018-07-24T18:30:55.792Z,39.00
2018-07-24T18:33:24.840Z,39.10
2018-07-24T18:35:55.569Z,39.30
2018-07-24T18:38:24.961Z,40.00
2018-07-24T18:40:54.043Z,40.80
2018-07-24T18:43:23.180Z,41.60
2018-07-24T18:45:52.412Z,41.70
2018-07-24T18:48:21.752Z,41.70
2018-07-24T18:50:53.424Z,42.20
2018-07-24T18:53:23.284Z,42.90
2018-07-24T18:55:52.643Z,43.90
2018-07-24T18:58:22.459Z,44.80
2018-07-24T19:00:51.671Z,45.50
2018-07-24T19:03:24.400Z,46.30
2018-07-24T19:08:23.199Z,47.20
2018-07-24T19:13:21.123Z,47.80
2018-07-24T19:15:50.363Z,48.30
2018-07-24T19:18:19.980Z,48.30
2018-07-24T19:20:48.996Z,48.60
2018-07-24T19:23:18.099Z,48.70
2018-07-24T19:25:47.345Z,49.00
2018-07-24T19:28:16.670Z,49.00
2018-07-24T19:30:46.277Z,49.00
2018-07-24T19:33:15.961Z,49.60
2018-07-24T19:35:45.682Z,50.40
2018-07-24T19:38:15.457Z,51.00
2018-07-24T19:40:44.697Z,51.10
2018-07-24T19:43:13.970Z,51.40
2018-07-24T19:45:43.075Z,51.70
2018-07-24T19:48:12.509Z,52.30
2018-07-24T19:50:41.553Z,52.80
2018-07-24T19:53:10.906Z,53.10
2018-07-24T19:55:40.188Z,53.40
2018-07-24T19:58:09.477Z,53.60
2018-07-24T20:00:38.574Z,53.90
2018-07-24T20:03:08.106Z,54.30
2018-07-24T20:05:36.656Z,54.60
2018-07-24T20:08:05.529Z,54.60
2018-07-24T20:10:34.093Z,54.80
2018-07-24T20:13:05.811Z,54.80
2018-07-24T20:15:34.912Z,54.80
2018-07-24T20:18:03.739Z,55.00
2018-07-24T20:20:32.225Z,55.40
2018-07-24T20:23:00.800Z,56.00
2018-07-24T20:25:29.727Z,56.20
2018-07-24T20:27:58.588Z,56.40
2018-07-24T20:30:27.052Z,56.70
2018-07-24T20:32:55.536Z,56.90
2018-07-24T20:35:24.103Z,57.20
2018-07-24T20:37:52.647Z,57.30
2018-07-24T20:40:21.124Z,57.40
2018-07-24T20:42:49.582Z,57.40
2018-07-24T20:45:18.174Z,57.40
2018-07-24T20:47:46.659Z,57.60
2018-07-24T20:50:15.167Z,57.70
2018-07-24T20:52:43.649Z,57.80
2018-07-24T20:55:12.503Z,57.90
2018-07-24T20:57:40.948Z,58.00
2018-07-24T21:00:09.440Z,58.30
2018-07-24T21:02:37.936Z,58.20
2018-07-24T21:05:06.455Z,58.50
2018-07-24T21:07:34.956Z,58.90
2018-07-24T21:12:31.674Z,59.40
2018-07-24T21:15:00.215Z,60.00
2018-07-24T21:17:28.782Z,59.50
2018-07-24T21:19:57.294Z,59.40
2018-07-24T21:22:26.173Z,59.50
2018-07-24T21:24:54.675Z,59.70
2018-07-24T21:27:23.221Z,60.00
2018-07-24T21:29:51.983Z,60.30
2018-07-24T21:32:20.464Z,60.70
2018-07-24T21:34:48.947Z,60.80
2018-07-24T21:37:17.419Z,60.90
2018-07-24T21:39:45.894Z,60.90
2018-07-24T21:42:14.445Z,61.10
2018-07-24T21:44:42.929Z,61.30
2018-07-24T21:47:11.383Z,61.60
2018-07-24T21:49:43.259Z,61.70
2018-07-24T21:52:11.736Z,61.70
2018-07-24T21:54:40.285Z,61.70
2018-07-24T21:57:09.195Z,62.30
2018-07-24T21:59:37.746Z,62.40
2018-07-24T22:02:06.268Z,62.80
2018-07-24T22:04:34.793Z,62.60
2018-07-24T22:07:03.251Z,62.80
2018-07-24T22:09:31.756Z,62.80
2018-07-24T22:12:00.198Z,62.80
2018-07-24T22:14:28.739Z,62.90
2018-07-24T22:16:57.212Z,63.20
2018-07-24T22:19:25.820Z,63.60
2018-07-24T22:21:54.425Z,63.70
2018-07-24T22:24:22.858Z,64.10
2018-07-24T22:26:51.352Z,64.30
2018-07-24T22:29:20.140Z,64.40
2018-07-24T22:31:48.643Z,64.70
2018-07-24T22:34:17.120Z,64.60
2018-07-24T22:36:45.599Z,65.10
2018-07-24T22:39:14.040Z,65.70
2018-07-24T22:41:42.515Z,66.10
2018-07-24T22:44:10.999Z,66.80
2018-07-24T22:46:39.512Z,67.30
2018-07-24T22:49:07.962Z,67.00
2018-07-24T22:51:36.442Z,68.00
2018-07-24T22:54:04.931Z,69.10
2018-07-24T22:59:01.843Z,68.00
2018-07-24T23:01:30.324Z,67.70
2018-07-24T23:03:58.776Z,67.70
2018-07-24T23:06:27.239Z,67.70
2018-07-24T23:08:55.719Z,67.60
2018-07-24T23:11:24.540Z,67.10
2018-07-24T23:13:53.016Z,66.90
2018-07-24T23:16:21.542Z,66.90
2018-07-24T23:18:50.005Z,67.30
2018-07-24T23:21:18.526Z,67.70
2018-07-24T23:23:46.988Z,67.90
2018-07-24T23:26:15.483Z,68.10
2018-07-24T23:28:44.001Z,68.00
2018-07-24T23:31:12.506Z,67.70
2018-07-24T23:33:40.983Z,67.90
2018-07-24T23:36:09.484Z,67.90
2018-07-24T23:38:37.927Z,67.80
2018-07-24T23:41:06.446Z,67.70
2018-07-24T23:43:34.911Z,67.70
2018-07-24T23:46:03.422Z,67.60
2018-07-24T23:48:31.882Z,67.80
2018-07-24T23:51:00.380Z,68.20
2018-07-24T23:53:28.838Z,68.40
2018-07-24T23:55:57.336Z,68.80
2018-07-24T23:58:25.782Z,69.20
